Time;durP1;ratioP1;P1;durP2;ratioP2;P2;SDS_P1;SDS_P2;PMS_P1;PMS_P2;Temp;Humidity;BMP_temperature;BMP_pressure;BME280_temperature;BME280_humidity;BME280_pressure;Samples;Min_cycle;Max_cycle;Signal;HPM_P1;HPM_P2
2022/06/11 00:01:05;;;;;;;;;;;;;;;22.60;91.57;98510.75;5102009;28;19924;-60
2022/06/11 00:03:31;;;;;;;;;;;;;;;22.69;91.15;98513.47;5105135;28;19967;-61
2022/06/11 00:05:58;;;;;;;;;;;;;;;22.71;90.48;98503.88;5105081;28;19924;-61
2022/06/11 00:08:25;;;;;;;;;;;;;;;22.49;91.42;98501.38;5101940;28;19988;-61
2022/06/11 00:10:52;;;;;;;;;;;;;;;22.48;92.14;98505.22;5101600;28;19924;-61
2022/06/11 00:13:22;;;;;;;;;;;;;;;22.56;91.77;98496.22;5099513;28;19956;-61
2022/06/11 00:15:49;;;;;;;;;;;;;;;22.53;91.07;98497.66;5101570;28;19935;-60
2022/06/11 00:18:17;;;;;;;;;;;;;;;22.74;89.74;98500.50;5103359;28;20000;-60
2022/06/11 00:20:44;;;;;;;;;;;;;;;22.79;89.29;98500.28;5104095;28;19974;-60
2022/06/11 00:23:10;;;;;;;;;;;;;;;22.81;88.88;98508.16;5103106;28;19924;-60
2022/06/11 00:25:37;;;;;;;;;;;;;;;22.78;89.11;98515.03;5100993;28;19924;-61
2022/06/11 00:28:03;;;;;;;;;;;;;;;22.69;89.47;98508.81;5101454;28;19960;-61
2022/06/11 00:30:30;;;;;;;;;;;;;;;22.69;89.65;98510.75;5104473;28;19953;-61
2022/06/11 00:32:57;;;;;;;;;;;;;;;22.66;89.93;98511.41;5103466;28;19928;-61
2022/06/11 00:35:25;;;;;;;;;;;;;;;22.68;89.12;98507.25;5101366;28;20010;-61
2022/06/11 00:37:52;;;;;;;;;;;;;;;22.71;89.77;98505.78;5100889;28;19924;-60
2022/06/11 00:40:21;;;;;;;;;;;;;;;22.66;89.46;98511.41;5103479;28;19951;-60
2022/06/11 00:42:47;;;;;;;;;;;;;;;22.59;89.93;98509.19;5106278;28;19924;-60
2022/06/11 00:45:16;;;;;;;;;;;;;;;22.54;90.11;98501.19;5102553;28;19967;-61
2022/06/11 00:47:43;;;;;;;;;;;;;;;22.50;90.58;98494.78;5100608;28;19935;-60
2022/06/11 00:50:19;;;;;;;;;;;;;;;22.47;90.71;98496.22;5102051;28;19925;-61
2022/06/11 00:52:48;;;;;;;;;;;;;;;22.47;91.23;98492.72;5103981;28;19974;-61
2022/06/11 00:55:17;;;;;;;;;;;;;;;22.49;91.02;98493.19;5102179;28;19931;-61
2022/06/11 00:57:45;;;;;;;;;;;;;;;22.44;91.13;98488.72;5100529;28;19960;-61
2022/06/11 01:00:16;;;;;;;;;;;;;;;22.36;91.34;98486.84;5100979;28;19932;-61
2022/06/11 01:02:43;;;;;;;;;;;;;;;22.40;91.46;98479.63;5103835;28;19930;-61
2022/06/11 01:05:14;;;;;;;;;;;;;;;22.35;90.89;98477.06;5102666;28;19931;-61
2022/06/11 01:07:50;;;;;;;;;;;;;;;22.22;92.22;98494.41;5100438;28;19947;-61
2022/06/11 01:10:26;;;;;;;;;;;;;;;22.34;91.95;98488.28;5102644;28;19924;-61
2022/06/11 01:12:58;;;;;;;;;;;;;;;22.41;91.02;98480.41;5096373;28;19960;-61
2022/06/11 01:15:28;;;;;;;;;;;;;;;22.37;91.20;98472.13;5100269;28;19931;-61
2022/06/11 01:18:02;;;;;;;;;;;;;;;22.40;91.07;98468.75;5100221;28;19924;-61
2022/06/11 01:20:33;;;;;;;;;;;;;;;22.44;91.13;98475.13;5099737;28;19946;-61
2022/06/11 01:23:17;;;;;;;;;;;;;;;22.42;91.19;98477.38;5099986;28;20555;-60
2022/06/11 01:25:51;;;;;;;;;;;;;;;22.09;92.66;98489.16;5100528;28;19932;-60
2022/06/11 01:28:30;;;;;;;;;;;;;;;21.89;95.45;98482.47;5101316;28;19925;-61
2022/06/11 01:31:03;;;;;;;;;;;;;;;21.97;94.95;98485.16;5103282;28;19928;-61
2022/06/11 01:33:34;;;;;;;;;;;;;;;22.02;94.14;98490.47;5099042;28;19921;-61
2022/06/11 01:36:04;;;;;;;;;;;;;;;22.06;94.00;98485.19;5098734;28;19928;-61
2022/06/11 01:38:32;;;;;;;;;;;;;;;22.09;93.78;98483.72;5099831;28;19928;-61
2022/06/11 01:41:06;;;;;;;;;;;;;;;22.07;93.97;98484.03;5099593;28;20154;-61
2022/06/11 01:43:36;;;;;;;;;;;;;;;21.92;94.58;98482.63;5091164;28;19924;-60
2022/06/11 01:46:05;;;;;;;;;;;;;;;21.95;94.65;98482.00;5100024;28;19924;-60
2022/06/11 01:48:32;;;;;;;;;;;;;;;21.98;94.27;98475.91;5101662;28;19924;-60
2022/06/11 01:51:16;;;;;;;;;;;;;;;21.91;94.27;98480.25;5102925;28;20455;-60
2022/06/11 01:53:54;;;;;;;;;;;;;;;21.91;93.94;98481.03;5099598;28;19925;-60
2022/06/11 01:56:35;;;;;;;;;;;;;;;21.92;93.55;98477.19;5102420;28;19925;-61
2022/06/11 01:59:09;;;;;;;;;;;;;;;21.90;93.04;98484.09;5101171;28;20022;-61
2022/06/11 02:01:46;;;;;;;;;;;;;;;21.89;92.68;98482.47;5099633;28;19924;-61
2022/06/11 02:04:19;;;;;;;;;;;;;;;21.86;92.57;98483.09;5101110;28;19964;-61
2022/06/11 02:06:49;;;;;;;;;;;;;;;21.79;92.75;98482.78;5102815;28;19970;-61
2022/06/11 02:09:22;;;;;;;;;;;;;;;21.78;92.82;98487.44;5100881;28;20015;-62
2022/06/11 02:11:50;;;;;;;;;;;;;;;21.80;92.49;98492.53;5099172;28;19932;-61
2022/06/11 02:14:18;;;;;;;;;;;;;;;21.76;92.52;98489.66;5093082;28;19925;-59
2022/06/11 02:16:50;;;;;;;;;;;;;;;21.71;92.59;98494.47;5102750;28;19935;-61
2022/06/11 02:19:17;;;;;;;;;;;;;;;21.72;92.77;98498.78;5100599;28;19950;-61
2022/06/11 02:21:47;;;;;;;;;;;;;;;21.70;92.68;98490.13;5099059;28;19928;-60
2022/06/11 02:24:16;;;;;;;;;;;;;;;21.69;92.85;98502.97;5100998;28;19931;-61
2022/06/11 02:26:44;;;;;;;;;;;;;;;21.68;92.66;98503.25;5102627;28;19987;-61
2022/06/11 02:29:11;;;;;;;;;;;;;;;21.68;92.89;98492.38;5101235;28;19931;-61
2022/06/11 02:31:40;;;;;;;;;;;;;;;21.69;92.84;98504.88;5098090;28;19925;-59
2022/06/11 02:34:09;;;;;;;;;;;;;;;21.67;92.84;98493.50;5099592;28;19970;-60
2022/06/11 02:36:45;;;;;;;;;;;;;;;21.53;93.70;98505.34;5102517;28;19928;-61
2022/06/11 02:39:12;;;;;;;;;;;;;;;21.41;94.80;98499.75;5100888;28;19924;-61
2022/06/11 02:41:38;;;;;;;;;;;;;;;21.31;96.08;98500.06;5098845;28;19931;-61
2022/06/11 02:44:04;;;;;;;;;;;;;;;20.96;97.72;98511.94;5090711;28;19928;-61
2022/06/11 02:46:43;;;;;;;;;;;;;;;20.69;100.00;98504.84;5101127;28;19924;-61
2022/06/11 02:49:13;;;;;;;;;;;;;;;20.95;100.00;98510.38;5100854;28;19931;-61
2022/06/11 02:51:40;;;;;;;;;;;;;;;21.19;97.71;98513.47;5098724;28;19924;-61
2022/06/11 02:54:06;;;;;;;;;;;;;;;21.32;96.74;98509.78;5099422;28;19925;-61
2022/06/11 02:56:33;;;;;;;;;;;;;;;21.42;95.69;98511.41;5102324;28;19930;-61
2022/06/11 02:59:00;;;;;;;;;;;;;;;21.46;95.32;98509.66;5102134;28;19924;-61
2022/06/11 03:01:26;;;;;;;;;;;;;;;21.38;95.43;98516.69;5098659;28;19986;-61
2022/06/11 03:03:53;;;;;;;;;;;;;;;21.44;95.08;98515.44;5098583;28;19924;-61
2022/06/11 03:06:22;;;;;;;;;;;;;;;21.37;95.46;98522.44;5101371;28;19952;-61
2022/06/11 03:08:49;;;;;;;;;;;;;;;21.33;95.73;98518.75;5102069;28;19928;-61
2022/06/11 03:11:15;;;;;;;;;;;;;;;21.10;96.03;98520.00;5100140;28;19924;-61
2022/06/11 03:13:42;;;;;;;;;;;;;;;20.71;98.95;98521.59;5090165;28;19932;-60
2022/06/11 03:16:08;;;;;;;;;;;;;;;20.53;100.00;98530.00;5099485;28;19924;-61
2022/06/11 03:18:35;;;;;;;;;;;;;;;20.49;100.00;98524.38;5101792;28;19987;-59
2022/06/11 03:21:01;;;;;;;;;;;;;;;20.72;100.00;98531.38;5101772;28;19934;-59
2022/06/11 03:23:29;;;;;;;;;;;;;;;20.65;100.00;98527.50;5098330;28;19967;-59
2022/06/11 03:25:56;;;;;;;;;;;;;;;20.60;100.00;98530.34;5098361;28;19928;-59
2022/06/11 03:28:24;;;;;;;;;;;;;;;20.29;100.00;98541.22;5101319;28;19924;-60
2022/06/11 03:30:51;;;;;;;;;;;;;;;20.03;100.00;98535.59;5101795;28;19920;-60
2022/06/11 03:33:18;;;;;;;;;;;;;;;20.18;100.00;98540.63;5099442;28;19924;-60
2022/06/11 03:35:46;;;;;;;;;;;;;;;20.32;100.00;98543.31;5098237;28;19928;-60
2022/06/11 03:38:13;;;;;;;;;;;;;;;20.41;100.00;98539.53;5099798;28;19946;-60
2022/06/11 03:40:41;;;;;;;;;;;;;;;20.67;100.00;98544.28;5101783;28;19946;-60
2022/06/11 03:43:07;;;;;;;;;;;;;;;20.58;98.82;98546.94;5092248;28;19929;-60
2022/06/11 03:45:34;;;;;;;;;;;;;;;20.79;97.78;98555.34;5097949;28;19987;-60
2022/06/11 03:48:01;;;;;;;;;;;;;;;20.92;97.07;98551.72;5097594;28;19936;-60
2022/06/11 03:50:28;;;;;;;;;;;;;;;20.92;96.19;98551.72;5089698;28;19928;-60
2022/06/11 03:52:55;;;;;;;;;;;;;;;20.88;96.14;98558.88;5089143;28;19946;-60
2022/06/11 03:55:23;;;;;;;;;;;;;;;20.99;95.44;98552.84;5089229;28;19929;-60
2022/06/11 03:57:51;;;;;;;;;;;;;;;20.91;96.03;98558.25;5092943;28;19925;-60
2022/06/11 04:01:14;;;;;;;;;;;;;;;21.01;95.14;98555.28;5092909;28;19935;-60
2022/06/11 04:03:06;;;;;;;;;;;;;;;21.03;94.89;98550.31;5092683;28;19932;-60
2022/06/11 04:05:33;;;;;;;;;;;;;;;21.12;94.19;98563.94;5092982;28;20106;-60
2022/06/11 04:08:00;;;;;;;;;;;;;;;21.11;93.92;98560.41;5092920;28;19936;-60
2022/06/11 04:10:26;;;;;;;;;;;;;;;21.07;94.01;98554.00;5092988;28;20344;-60
2022/06/11 04:12:54;;;;;;;;;;;;;;;21.09;93.90;98565.38;5092584;28;19924;-60
2022/06/11 04:15:21;;;;;;;;;;;;;;;20.99;94.56;98557.47;5101167;28;19921;-60
2022/06/11 04:17:48;;;;;;;;;;;;;;;20.97;94.73;98565.97;5101136;28;20397;-60
2022/06/11 04:20:15;;;;;;;;;;;;;;;20.73;95.23;98567.47;5102696;28;19924;-60
2022/06/11 04:22:41;;;;;;;;;;;;;;;20.65;96.93;98568.19;5104310;28;20360;-60
2022/06/11 04:25:08;;;;;;;;;;;;;;;20.15;100.00;98571.06;5103415;28;19924;-60
2022/06/11 04:27:35;;;;;;;;;;;;;;;19.93;100.00;98576.50;5101019;28;20583;-60
2022/06/11 04:30:03;;;;;;;;;;;;;;;20.12;100.00;98576.31;5100829;28;19935;-59
2022/06/11 04:32:30;;;;;;;;;;;;;;;20.29;100.00;98569.16;5092407;28;19962;-60
2022/06/11 04:34:56;;;;;;;;;;;;;;;20.55;98.61;98571.97;5092451;28;19928;-60
2022/06/11 04:37:24;;;;;;;;;;;;;;;20.72;97.01;98568.56;5092443;28;20633;-60
2022/06/11 04:39:52;;;;;;;;;;;;;;;20.74;96.66;98563.59;5092191;28;19942;-60
2022/06/11 04:42:19;;;;;;;;;;;;;;;20.79;96.04;98568.91;5092378;28;19924;-60
2022/06/11 04:44:46;;;;;;;;;;;;;;;20.73;96.16;98562.84;5097216;28;20520;-60
2022/06/11 04:47:17;;;;;;;;;;;;;;;20.65;96.85;98573.63;5102504;28;19924;-60
2022/06/11 04:49:44;;;;;;;;;;;;;;;20.68;97.12;98570.28;5100278;28;19967;-60
2022/06/11 04:52:11;;;;;;;;;;;;;;;20.37;99.01;98573.00;5101694;28;19944;-59
2022/06/11 04:54:37;;;;;;;;;;;;;;;20.42;99.39;98581.81;5103972;28;19924;-60
2022/06/11 04:57:04;;;;;;;;;;;;;;;20.03;100.00;98578.97;5103441;28;19924;-60
2022/06/11 04:59:32;;;;;;;;;;;;;;;20.06;100.00;98582.97;5100350;28;19935;-61
2022/06/11 05:01:59;;;;;;;;;;;;;;;19.93;100.00;98576.50;5100213;28;19928;-61
2022/06/11 05:04:27;;;;;;;;;;;;;;;19.72;100.00;98572.66;5103575;28;20015;-61
2022/06/11 05:06:54;;;;;;;;;;;;;;;19.75;100.00;98578.28;5103693;28;19996;-61
2022/06/11 05:09:21;;;;;;;;;;;;;;;19.53;100.00;98575.53;5100991;28;19931;-61
2022/06/11 05:11:48;;;;;;;;;;;;;;;19.52;100.00;98578.56;5099888;28;19924;-61
2022/06/11 05:14:15;;;;;;;;;;;;;;;19.55;100.00;98577.94;5093439;28;19959;-61
2022/06/11 05:16:42;;;;;;;;;;;;;;;19.86;100.00;98578.84;5103504;28;19924;-61
2022/06/11 05:19:09;;;;;;;;;;;;;;;19.39;100.00;98580.97;5101295;28;19971;-61
2022/06/11 05:21:37;;;;;;;;;;;;;;;19.78;100.00;98582.28;5099462;28;19935;-61
2022/06/11 05:24:04;;;;;;;;;;;;;;;19.67;100.00;98584.44;5100079;28;20413;-60
2022/06/11 05:26:32;;;;;;;;;;;;;;;20.20;100.00;98584.53;5102262;28;19992;-60
2022/06/11 05:28:59;;;;;;;;;;;;;;;20.51;99.64;98579.16;5102318;28;19928;-59
2022/06/11 05:31:26;;;;;;;;;;;;;;;20.95;95.60;98570.88;5099827;28;19925;-60
2022/06/11 05:33:52;;;;;;;;;;;;;;;21.25;92.73;98574.69;5099855;28;19932;-60
2022/06/11 05:36:20;;;;;;;;;;;;;;;21.52;91.00;98577.13;5102089;28;19946;-60
2022/06/11 05:38:48;;;;;;;;;;;;;;;21.68;89.84;98576.66;5102962;28;19931;-61
2022/06/11 05:41:14;;;;;;;;;;;;;;;21.76;88.90;98590.25;5101309;28;19992;-61
2022/06/11 05:43:40;;;;;;;;;;;;;;;21.90;88.48;98581.97;5101592;28;19928;-60
2022/06/11 05:46:09;;;;;;;;;;;;;;;22.17;88.58;98580.84;5100131;28;19959;-61
2022/06/11 05:48:37;;;;;;;;;;;;;;;22.03;87.92;98581.81;5102618;28;19923;-60
2022/06/11 05:51:03;;;;;;;;;;;;;;;22.19;87.70;98584.06;5102537;28;19924;-61
2022/06/11 05:53:31;;;;;;;;;;;;;;;22.34;86.54;98575.38;5098081;28;19989;-61
2022/06/11 05:56:00;;;;;;;;;;;;;;;22.47;86.71;98579.81;5099322;28;20022;-61
2022/06/11 05:58:31;;;;;;;;;;;;;;;22.68;86.00;98579.97;5102732;28;19970;-61
2022/06/11 06:00:58;;;;;;;;;;;;;;;22.76;85.63;98582.66;5102412;28;19936;-60
2022/06/11 06:03:25;;;;;;;;;;;;;;;22.74;85.67;98589.53;5099130;28;19966;-60
2022/06/11 06:05:52;;;;;;;;;;;;;;;22.79;85.50;98584.72;5098747;28;19925;-60
2022/06/11 06:08:18;;;;;;;;;;;;;;;22.90;85.43;98587.91;5100944;28;19991;-60
2022/06/11 06:10:45;;;;;;;;;;;;;;;22.29;89.87;98584.50;5102317;28;19924;-60
2022/06/11 06:15:56;;;;;;;;;;;;;;;22.24;92.73;98576.50;5098869;28;19924;-60
2022/06/11 06:18:23;;;;;;;;;;;;;;;22.54;90.31;98575.47;5101521;28;19924;-60
2022/06/11 06:20:50;;;;;;;;;;;;;;;22.93;88.65;98584.50;5102143;28;19974;-60
2022/06/11 06:23:16;;;;;;;;;;;;;;;22.85;89.81;98579.88;5099000;28;19924;-60
2022/06/11 06:25:42;;;;;;;;;;;;;;;22.90;88.50;98582.44;5098778;28;19963;-60
2022/06/11 06:28:09;;;;;;;;;;;;;;;22.85;89.79;98580.69;5099644;28;20388;-61
2022/06/11 06:30:37;;;;;;;;;;;;;;;22.85;90.60;98588.84;5102364;28;19924;-60
2022/06/11 06:33:03;;;;;;;;;;;;;;;23.23;88.57;98577.94;5100615;28;19931;-60
2022/06/11 06:35:31;;;;;;;;;;;;;;;23.44;87.31;98586.97;5098582;28;19946;-61
2022/06/11 06:37:57;;;;;;;;;;;;;;;23.64;86.85;98586.19;5098508;28;19924;-61
2022/06/11 06:40:24;;;;;;;;;;;;;;;23.83;85.84;98585.72;5101632;28;19924;-61
2022/06/11 06:42:50;;;;;;;;;;;;;;;23.54;87.12;98596.72;5103983;28;19996;-61
2022/06/11 06:45:17;;;;;;;;;;;;;;;23.49;88.22;98596.88;5099793;28;20217;-61
2022/06/11 06:47:44;;;;;;;;;;;;;;;23.13;90.20;98591.94;5098175;28;19925;-60
2022/06/11 06:50:11;;;;;;;;;;;;;;;23.45;89.72;98596.78;5099650;28;19922;-61
2022/06/11 06:52:37;;;;;;;;;;;;;;;23.57;89.06;98590.59;5101939;28;19963;-61
2022/06/11 06:55:04;;;;;;;;;;;;;;;23.21;90.09;98593.81;5101662;28;19924;-61
2022/06/11 06:57:30;;;;;;;;;;;;;;;23.63;88.72;98592.00;5098434;28;19952;-61
2022/06/11 06:59:56;;;;;;;;;;;;;;;23.70;88.57;98586.00;5098410;28;19924;-60
2022/06/11 07:02:24;;;;;;;;;;;;;;;24.02;86.77;98587.97;5101255;28;19951;-61
2022/06/11 07:04:51;;;;;;;;;;;;;;;23.71;87.51;98585.66;5101455;28;19946;-61
2022/06/11 07:07:19;;;;;;;;;;;;;;;23.27;90.18;98591.72;5099342;28;19936;-61
2022/06/11 07:09:45;;;;;;;;;;;;;;;23.67;89.32;98594.88;5098362;28;20033;-60
2022/06/11 07:12:12;;;;;;;;;;;;;;;23.50;89.53;98596.56;5097930;28;19963;-61
2022/06/11 07:14:38;;;;;;;;;;;;;;;23.28;89.62;98583.19;5094744;28;19957;-60
2022/06/11 07:17:08;;;;;;;;;;;;;;;23.18;91.65;98583.56;5100998;28;19946;-61
2022/06/11 07:19:40;;;;;;;;;;;;;;;23.62;89.77;98583.00;5098292;28;19963;-61
2022/06/11 07:22:11;;;;;;;;;;;;;;;23.83;87.55;98588.47;5098703;28;19924;-61
2022/06/11 07:24:40;;;;;;;;;;;;;;;24.05;86.31;98584.59;5101535;28;19924;-60
2022/06/11 07:27:09;;;;;;;;;;;;;;;24.34;85.70;98581.78;5101059;28;19955;-60
2022/06/11 07:29:37;;;;;;;;;;;;;;;24.16;84.75;98588.56;5096968;28;19925;-60
2022/06/11 07:32:07;;;;;;;;;;;;;;;24.08;84.40;98581.19;5100840;28;19931;-60
2022/06/11 07:34:35;;;;;;;;;;;;;;;24.20;86.55;98577.75;5105366;28;19947;-60
2022/06/11 07:37:02;;;;;;;;;;;;;;;24.46;84.96;98592.75;5105193;28;19993;-60
2022/06/11 07:39:30;;;;;;;;;;;;;;;24.04;84.44;98583.00;5093107;28;19928;-60
2022/06/11 07:41:56;;;;;;;;;;;;;;;24.12;86.50;98585.69;5094492;28;19931;-62
2022/06/11 07:44:23;;;;;;;;;;;;;;;24.44;85.19;98575.91;5105014;28;19925;-60
2022/06/11 07:46:49;;;;;;;;;;;;;;;24.35;83.04;98580.66;5104981;28;19924;-61
2022/06/11 07:49:16;;;;;;;;;;;;;;;24.59;83.23;98583.44;5102998;28;20015;-61
2022/06/11 07:51:43;;;;;;;;;;;;;;;25.04;80.30;98582.59;5101567;28;19935;-61
2022/06/11 07:54:10;;;;;;;;;;;;;;;25.10;79.33;98582.03;5102355;28;20002;-61
2022/06/11 07:56:38;;;;;;;;;;;;;;;25.33;77.56;98579.66;5104947;28;19965;-60
2022/06/11 07:59:05;;;;;;;;;;;;;;;24.82;76.29;98583.06;5104552;28;19924;-60
2022/06/11 08:01:31;;;;;;;;;;;;;;;24.23;82.03;98582.56;5101343;28;19924;-61
2022/06/11 08:03:57;;;;;;;;;;;;;;;24.48;82.47;98584.22;5100281;28;19931;-62
2022/06/11 08:06:24;;;;;;;;;;;;;;;24.15;83.09;98578.75;5104402;28;19950;-61
2022/06/11 08:08:51;;;;;;;;;;;;;;;24.09;83.61;98580.06;5104657;28;19935;-61
2022/06/11 08:11:18;;;;;;;;;;;;;;;23.84;84.89;98578.34;5102475;28;19924;-61
2022/06/11 08:13:46;;;;;;;;;;;;;;;24.32;83.59;98586.78;5103096;28;19928;-60
2022/06/11 08:16:13;;;;;;;;;;;;;;;24.23;82.07;98583.34;5102722;28;19946;-60
2022/06/11 08:18:39;;;;;;;;;;;;;;;24.46;82.29;98583.75;5104718;28;19932;-60
2022/06/11 08:21:06;;;;;;;;;;;;;;;24.57;77.66;98569.31;5103903;28;19924;-60
2022/06/11 08:23:33;;;;;;;;;;;;;;;24.48;76.56;98576.81;5101141;28;19924;-61
2022/06/11 08:25:59;;;;;;;;;;;;;;;24.50;79.91;98574.56;5100986;28;19962;-61
2022/06/11 08:28:26;;;;;;;;;;;;;;;24.84;79.43;98583.50;5104352;28;19928;-61
2022/06/11 08:30:54;;;;;;;;;;;;;;;25.41;75.76;98570.50;5103224;28;19979;-59
2022/06/11 08:33:20;;;;;;;;;;;;;;;25.00;71.18;98571.59;5101778;28;19980;-60
2022/06/11 08:35:47;;;;;;;;;;;;;;;24.55;72.87;98576.25;5100676;28;19952;-62
2022/06/11 08:38:13;;;;;;;;;;;;;;;24.36;73.29;98570.50;5102384;28;19924;-61
2022/06/11 08:40:43;;;;;;;;;;;;;;;25.07;73.14;98571.00;5104330;28;19928;-61
2022/06/11 08:43:15;;;;;;;;;;;;;;;24.78;67.53;98568.47;5105253;28;19959;-61
2022/06/11 08:45:44;;;;;;;;;;;;;;;24.36;69.60;98565.84;5100961;28;19928;-60
2022/06/11 08:48:14;;;;;;;;;;;;;;;24.42;65.77;98564.50;5101610;28;19924;-61
2022/06/11 08:50:45;;;;;;;;;;;;;;;24.14;65.88;98571.69;5104461;28;19928;-61
2022/06/11 08:53:12;;;;;;;;;;;;;;;24.32;66.93;98562.22;5102859;28;19930;-61
2022/06/11 08:55:39;;;;;;;;;;;;;;;24.46;64.25;98568.16;5100790;28;19928;-60
2022/06/11 08:58:12;;;;;;;;;;;;;;;24.64;61.98;98575.03;5100184;28;20506;-61
2022/06/11 09:00:45;;;;;;;;;;;;;;;24.52;61.40;98563.28;5104037;28;19924;-59
2022/06/11 09:03:20;;;;;;;;;;;;;;;24.92;63.91;98563.47;5102483;28;19957;-61
2022/06/11 09:05:55;;;;;;;;;;;;;;;25.00;62.92;98565.31;5100250;28;20390;-61
2022/06/11 09:08:28;;;;;;;;;;;;;;;24.89;59.88;98559.50;5102997;28;19925;-61
2022/06/11 09:11:10;;;;;;;;;;;;;;;24.98;61.51;98560.19;5102830;28;19931;-59
2022/06/11 09:13:48;;;;;;;;;;;;;;;25.38;60.01;98559.50;5102407;28;19924;-60
2022/06/11 09:16:21;;;;;;;;;;;;;;;25.41;58.94;98559.56;5101964;28;19925;-62
2022/06/11 09:19:03;;;;;;;;;;;;;;;25.46;57.45;98551.16;5103633;28;19963;-61
2022/06/11 09:21:38;;;;;;;;;;;;;;;25.50;55.03;98548.56;5100230;28;19924;-60
2022/06/11 09:24:19;;;;;;;;;;;;;;;25.56;55.76;98558.13;5100535;28;19924;-60
2022/06/11 09:26:46;;;;;;;;;;;;;;;25.33;54.88;98551.50;5101806;28;20477;-61
2022/06/11 09:29:15;;;;;;;;;;;;;;;25.66;55.54;98550.22;5102106;28;19978;-60
2022/06/11 09:31:45;;;;;;;;;;;;;;;25.70;54.71;98559.31;5100189;28;19939;-61
2022/06/11 09:34:14;;;;;;;;;;;;;;;25.30;54.49;98552.19;5101250;28;19932;-61
2022/06/11 09:36:43;;;;;;;;;;;;;;;25.38;54.67;98554.78;5102422;28;19920;-61
2022/06/11 09:39:15;;;;;;;;;;;;;;;25.42;53.95;98555.72;5102276;28;19932;-61
2022/06/11 09:41:46;;;;;;;;;;;;;;;25.57;54.10;98546.81;5099505;28;19924;-61
2022/06/11 09:44:20;;;;;;;;;;;;;;;25.67;49.67;98542.81;5099326;28;19931;-61
2022/06/11 09:46:53;;;;;;;;;;;;;;;25.31;49.59;98540.13;5098474;28;19931;-60
2022/06/11 09:49:25;;;;;;;;;;;;;;;25.28;52.71;98549.81;5101663;28;19928;-61
2022/06/11 09:51:54;;;;;;;;;;;;;;;25.36;51.49;98554.34;5102776;28;19977;-61
2022/06/11 09:54:29;;;;;;;;;;;;;;;25.59;53.77;98539.06;5099698;28;19946;-60
2022/06/11 09:57:01;;;;;;;;;;;;;;;25.76;54.62;98541.53;5099313;28;19931;-60
2022/06/11 09:59:32;;;;;;;;;;;;;;;25.68;51.83;98542.47;5090974;28;19952;-60
2022/06/11 10:02:03;;;;;;;;;;;;;;;25.66;53.27;98542.00;5090872;28;20477;-61
2022/06/11 10:04:32;;;;;;;;;;;;;;;25.64;51.17;98538.03;5094822;28;19928;-60
2022/06/11 10:07:00;;;;;;;;;;;;;;;25.65;49.69;98545.91;5102635;28;19931;-61
2022/06/11 10:09:31;;;;;;;;;;;;;;;25.66;52.38;98544.75;5099306;28;19925;-62
2022/06/11 10:12:01;;;;;;;;;;;;;;;25.74;49.34;98548.50;5100587;28;19920;-62
2022/06/11 10:14:32;;;;;;;;;;;;;;;25.66;49.35;98550.22;5090499;28;19995;-62
2022/06/11 10:17:03;;;;;;;;;;;;;;;25.65;50.78;98548.63;5090444;28;19947;-63
2022/06/11 10:19:33;;;;;;;;;;;;;;;26.47;56.19;98542.69;5090481;28;20004;-62
2022/06/11 10:22:01;;;;;;;;;;;;;;;26.20;54.25;98550.63;5098786;28;19936;-62
2022/06/11 10:24:29;;;;;;;;;;;;;;;26.12;53.74;98545.28;5097879;28;19948;-61
2022/06/11 10:26:59;;;;;;;;;;;;;;;26.68;54.62;98546.78;5098825;28;19942;-62
2022/06/11 10:29:28;;;;;;;;;;;;;;;26.51;54.07;98549.06;5102136;28;19924;-62
2022/06/11 10:31:56;;;;;;;;;;;;;;;26.70;56.15;98539.03;5102319;28;19947;-62
2022/06/11 10:34:23;;;;;;;;;;;;;;;27.12;55.09;98533.78;5099715;28;21133;-61
2022/06/11 10:36:54;;;;;;;;;;;;;;;26.82;51.85;98535.41;5098941;28;19935;-61
2022/06/11 10:39:23;;;;;;;;;;;;;;;26.67;51.19;98542.47;5101561;28;19924;-61
2022/06/11 10:41:52;;;;;;;;;;;;;;;26.72;50.65;98542.19;5101122;28;20122;-61
2022/06/11 10:44:25;;;;;;;;;;;;;;;26.54;51.69;98532.75;5102070;28;19995;-62
2022/06/11 10:46:53;;;;;;;;;;;;;;;26.50;52.00;98542.00;5101916;28;19924;-62
2022/06/11 10:49:21;;;;;;;;;;;;;;;26.31;51.87;98537.19;5099509;28;19928;-62
2022/06/11 10:51:52;;;;;;;;;;;;;;;26.22;50.88;98551.06;5098444;28;19956;-63
2022/06/11 10:54:22;;;;;;;;;;;;;;;26.96;54.88;98533.00;5100822;28;19928;-62
2022/06/11 10:56:50;;;;;;;;;;;;;;;26.20;52.05;98539.66;5102017;28;19974;-62
2022/06/11 10:59:21;;;;;;;;;;;;;;;26.54;51.75;98540.94;5100311;28;20361;-63
2022/06/11 11:01:50;;;;;;;;;;;;;;;26.46;51.61;98539.16;5098313;28;19946;-62
2022/06/11 11:04:27;;;;;;;;;;;;;;;26.45;48.00;98534.84;5100534;28;19928;-62
2022/06/11 11:07:06;;;;;;;;;;;;;;;26.38;48.28;98529.19;5106007;28;19924;-61
2022/06/11 11:09:34;;;;;;;;;;;;;;;26.33;47.13;98531.38;5094449;28;19921;-62
2022/06/11 11:12:04;;;;;;;;;;;;;;;26.29;48.27;98521.13;5096264;28;19925;-62
2022/06/11 11:14:33;;;;;;;;;;;;;;;26.37;47.71;98515.84;5094240;28;19924;-62
2022/06/11 11:17:00;;;;;;;;;;;;;;;26.36;47.81;98526.00;5094186;28;19924;-62
2022/06/11 11:19:29;;;;;;;;;;;;;;;26.31;47.77;98518.03;5094320;28;19932;-61
2022/06/11 11:21:58;;;;;;;;;;;;;;;26.10;49.22;98518.22;5093882;28;19924;-63
2022/06/11 11:24:26;;;;;;;;;;;;;;;26.22;48.56;98517.41;5094003;28;19925;-62
2022/06/11 11:26:56;;;;;;;;;;;;;;;26.28;49.29;98510.53;5093755;28;19925;-61
2022/06/11 11:29:24;;;;;;;;;;;;;;;26.25;48.04;98512.03;5093702;28;20693;-61
2022/06/11 11:31:53;;;;;;;;;;;;;;;26.26;47.86;98507.34;5096062;28;19977;-61
2022/06/11 11:34:24;;;;;;;;;;;;;;;26.30;49.28;98508.25;5093573;28;19966;-61
2022/06/11 11:36:56;;;;;;;;;;;;;;;26.69;52.63;98515.50;5092464;28;19929;-62
2022/06/11 11:39:25;;;;;;;;;;;;;;;27.23;52.24;98506.63;5093757;28;19928;-62
2022/06/11 11:42:03;;;;;;;;;;;;;;;27.25;47.28;98499.63;5100250;28;19967;-62
2022/06/11 11:44:34;;;;;;;;;;;;;;;26.78;49.00;98502.41;5101952;28;19924;-61
2022/06/11 11:47:02;;;;;;;;;;;;;;;26.56;49.10;98511.25;5101860;28;20399;-61
2022/06/11 11:49:30;;;;;;;;;;;;;;;26.53;50.12;98511.97;5093317;28;19924;-62
2022/06/11 11:52:02;;;;;;;;;;;;;;;26.64;52.20;98506.75;5093357;28;19924;-61
2022/06/11 11:54:29;;;;;;;;;;;;;;;26.98;51.80;98502.50;5096947;28;19963;-61
2022/06/11 11:56:57;;;;;;;;;;;;;;;27.15;49.19;98496.63;5104881;28;20000;-61
2022/06/11 11:59:27;;;;;;;;;;;;;;;26.58;51.41;98506.25;5102283;28;19964;-61
2022/06/11 12:01:55;;;;;;;;;;;;;;;26.70;50.64;98505.34;5101462;28;20448;-61
2022/06/11 12:04:26;;;;;;;;;;;;;;;26.45;49.94;98498.44;5104412;28;19924;-62
2022/06/11 12:06:54;;;;;;;;;;;;;;;26.60;50.51;98503.13;5104923;28;19954;-60
2022/06/11 12:09:22;;;;;;;;;;;;;;;26.88;49.99;98503.84;5102599;28;19991;-60
2022/06/11 12:11:56;;;;;;;;;;;;;;;26.61;50.89;98502.78;5101701;28;19925;-61
2022/06/11 12:14:29;;;;;;;;;;;;;;;26.83;50.60;98492.38;5104851;28;19928;-60
2022/06/11 12:16:57;;;;;;;;;;;;;;;27.09;49.85;98493.38;5104081;28;19950;-59
2022/06/11 12:19:26;;;;;;;;;;;;;;;27.52;48.31;98492.38;5101869;28;19982;-61
2022/06/11 12:21:55;;;;;;;;;;;;;;;27.43;49.02;98491.00;5100055;28;19924;-61
2022/06/11 12:24:27;;;;;;;;;;;;;;;27.57;48.63;98483.88;5104123;28;19932;-60
2022/06/11 12:26:57;;;;;;;;;;;;;;;27.60;48.26;98482.38;5104479;28;19978;-60
2022/06/11 12:29:30;;;;;;;;;;;;;;;27.56;47.90;98481.50;5101674;28;19924;-61
2022/06/11 12:32:00;;;;;;;;;;;;;;;27.46;49.47;98479.31;5101231;28;19925;-59
2022/06/11 12:34:28;;;;;;;;;;;;;;;27.56;49.37;98486.97;5104227;28;19931;-60
2022/06/11 12:36:57;;;;;;;;;;;;;;;27.43;49.49;98483.56;5104417;28;19924;-61
2022/06/11 12:39:31;;;;;;;;;;;;;;;27.60;49.77;98480.44;5101701;28;19931;-61
2022/06/11 12:42:03;;;;;;;;;;;;;;;27.66;49.68;98478.97;5102467;28;19925;-61
2022/06/11 12:44:44;;;;;;;;;;;;;;;27.78;48.57;98483.53;5100970;28;19952;-60
2022/06/11 12:47:21;;;;;;;;;;;;;;;27.95;48.42;98482.25;5101784;28;19955;-60
2022/06/11 12:49:54;;;;;;;;;;;;;;;27.97;48.34;98482.72;5104143;28;19924;-60
2022/06/11 12:52:24;;;;;;;;;;;;;;;27.54;48.67;98472.84;5101835;28;19924;-60
2022/06/11 12:55:07;;;;;;;;;;;;;;;27.71;45.28;98466.91;5100522;28;19987;-60
2022/06/11 12:57:41;;;;;;;;;;;;;;;27.66;46.98;98464.47;5100512;28;19928;-60